createdAt,value
2023-03-27T00:02:05.178Z,4.23
2023-03-27T00:04:31.928Z,4.22
2023-03-27T00:06:59.505Z,4.07
2023-03-27T00:09:27.834Z,4.06
2023-03-27T00:11:57.623Z,4.05
2023-03-27T00:14:24.095Z,4.06
2023-03-27T00:16:51.430Z,4.00
2023-03-27T00:19:19.151Z,3.92
2023-03-27T00:21:45.744Z,3.86
2023-03-27T00:24:12.875Z,3.95
2023-03-27T00:26:40.866Z,4.12
2023-03-27T00:29:08.050Z,4.07
2023-03-27T00:31:36.469Z,4.19
2023-03-27T00:34:03.594Z,4.16
2023-03-27T00:36:30.295Z,4.14
2023-03-27T00:38:58.798Z,4.19
2023-03-27T00:41:25.477Z,4.28
2023-03-27T00:43:54.537Z,4.36
2023-03-27T00:46:39.701Z,4.48
2023-03-27T00:49:09.828Z,4.55
2023-03-27T00:51:38.262Z,4.67
2023-03-27T00:54:06.293Z,4.57
2023-03-27T00:56:34.081Z,4.78
2023-03-27T00:59:03.115Z,4.69
2023-03-27T01:01:31.309Z,4.64
2023-03-27T01:04:04.226Z,4.65
2023-03-27T01:06:31.301Z,4.62
2023-03-27T01:08:57.893Z,4.56
2023-03-27T01:12:07.656Z,4.46
2023-03-27T01:14:54.990Z,4.49
2023-03-27T01:17:38.161Z,4.41
2023-03-27T01:20:41.201Z,4.57
2023-03-27T01:23:36.273Z,4.64
2023-03-27T01:26:37.170Z,4.57
2023-03-27T01:29:14.696Z,4.57
2023-03-27T01:31:59.890Z,4.60
2023-03-27T01:34:40.486Z,4.70
2023-03-27T01:37:14.724Z,4.70
2023-03-27T01:40:01.068Z,4.41
2023-03-27T01:42:47.928Z,4.45
2023-03-27T01:45:21.618Z,4.28
2023-03-27T01:48:09.454Z,4.20
2023-03-27T01:50:46.691Z,4.17
2023-03-27T01:53:19.888Z,4.14
2023-03-27T01:55:53.803Z,3.89
2023-03-27T01:58:28.199Z,3.85
2023-03-27T02:01:00.598Z,3.88
2023-03-27T02:03:34.776Z,3.89
2023-03-27T02:06:29.157Z,3.84
2023-03-27T02:09:02.606Z,3.82
2023-03-27T02:11:35.795Z,3.96
2023-03-27T02:14:13.822Z,3.84
2023-03-27T02:16:46.462Z,3.85
2023-03-27T02:19:33.551Z,3.69
2023-03-27T02:22:00.146Z,3.67
2023-03-27T02:24:26.796Z,3.63
2023-03-27T02:27:10.784Z,3.59
2023-03-27T02:29:46.361Z,3.48
2023-03-27T02:32:23.007Z,3.34
2023-03-27T02:35:02.811Z,3.28
2023-03-27T02:37:56.899Z,3.27
2023-03-27T02:40:42.161Z,3.33
2023-03-27T02:43:35.434Z,3.33
2023-03-27T02:46:20.557Z,3.22
2023-03-27T02:48:52.745Z,3.20
2023-03-27T02:51:27.487Z,3.20
2023-03-27T02:54:05.250Z,3.17
2023-03-27T02:56:39.408Z,3.08
2023-03-27T02:59:10.424Z,3.13
2023-03-27T03:01:39.170Z,3.13
2023-03-27T03:04:46.166Z,3.17
2023-03-27T03:07:14.273Z,3.11
2023-03-27T03:09:41.531Z,3.19
2023-03-27T03:12:08.762Z,3.15
2023-03-27T03:14:38.870Z,2.95
2023-03-27T03:17:05.491Z,2.84
2023-03-27T03:19:32.436Z,3.07
2023-03-27T03:21:58.897Z,3.10
2023-03-27T03:24:25.342Z,3.06
2023-03-27T03:26:51.950Z,3.07
2023-03-27T03:29:21.446Z,3.07
2023-03-27T03:31:49.768Z,3.08
2023-03-27T03:34:22.460Z,3.23
2023-03-27T03:36:49.631Z,3.31
2023-03-27T03:39:17.402Z,3.29
2023-03-27T03:41:43.842Z,3.28
2023-03-27T03:44:10.524Z,3.38
2023-03-27T03:46:37.296Z,3.38
2023-03-27T03:49:07.169Z,3.55
2023-03-27T03:51:35.361Z,3.52
2023-03-27T03:54:04.363Z,3.39
2023-03-27T03:56:31.618Z,3.53
2023-03-27T03:58:58.125Z,3.40
2023-03-27T04:01:26.073Z,3.50
2023-03-27T04:03:52.919Z,3.47
2023-03-27T04:06:21.218Z,3.26
2023-03-27T04:08:48.567Z,3.26
2023-03-27T04:11:15.098Z,3.34
2023-03-27T04:13:41.567Z,3.33
2023-03-27T04:16:08.337Z,3.23
2023-03-27T04:18:35.319Z,3.18
2023-03-27T04:21:02.455Z,3.18
2023-03-27T04:23:31.943Z,3.25
2023-03-27T04:26:04.036Z,3.15
2023-03-27T04:28:34.628Z,3.09
2023-03-27T04:31:06.483Z,3.04
2023-03-27T04:33:34.667Z,3.06
2023-03-27T04:36:06.563Z,3.02
2023-03-27T04:38:36.976Z,2.95
2023-03-27T04:41:04.307Z,2.91
2023-03-27T04:43:31.616Z,2.90
2023-03-27T04:45:58.322Z,2.88
2023-03-27T04:48:24.982Z,2.64
2023-03-27T04:50:51.426Z,2.77
2023-03-27T04:53:20.576Z,2.81
2023-03-27T04:55:51.260Z,2.73
2023-03-27T04:58:18.829Z,2.73
2023-03-27T05:00:50.994Z,2.61
2023-03-27T05:03:19.184Z,2.68
2023-03-27T05:05:50.039Z,2.77
2023-03-27T05:08:17.251Z,2.83
2023-03-27T05:10:44.920Z,2.88
2023-03-27T05:13:12.277Z,2.69
2023-03-27T05:15:39.131Z,2.57
2023-03-27T05:18:07.221Z,2.77
2023-03-27T05:20:34.813Z,2.55
2023-03-27T05:23:01.452Z,2.67
2023-03-27T05:25:29.443Z,2.87
2023-03-27T05:27:56.122Z,2.90
2023-03-27T05:30:24.994Z,2.73
2023-03-27T05:32:52.594Z,2.75
2023-03-27T05:35:22.457Z,2.64
2023-03-27T05:37:51.157Z,2.88
2023-03-27T05:40:22.433Z,2.68
2023-03-27T05:42:50.449Z,2.71
2023-03-27T05:45:18.791Z,2.74
2023-03-27T05:47:58.596Z,2.92
2023-03-27T05:50:28.441Z,2.90
2023-03-27T05:53:08.220Z,2.98
2023-03-27T05:55:34.833Z,2.88
2023-03-27T05:58:01.659Z,2.79
2023-03-27T06:00:31.887Z,2.85
2023-03-27T06:03:00.625Z,3.02
2023-03-27T06:05:29.742Z,3.20
2023-03-27T06:07:59.504Z,3.17
2023-03-27T06:10:31.354Z,3.15
2023-03-27T06:13:00.314Z,3.37
2023-03-27T06:15:27.518Z,3.44
2023-03-27T06:17:54.018Z,3.67
2023-03-27T06:20:21.896Z,3.73
2023-03-27T06:22:53.300Z,3.73
2023-03-27T06:25:22.832Z,3.55
2023-03-27T06:27:50.482Z,3.65
2023-03-27T06:30:20.418Z,3.54
2023-03-27T06:32:49.222Z,3.53
2023-03-27T06:35:16.568Z,3.53
2023-03-27T06:37:48.905Z,3.37
2023-03-27T06:40:22.863Z,3.45
2023-03-27T06:42:53.457Z,3.69
2023-03-27T06:45:20.958Z,3.76
2023-03-27T06:47:54.379Z,3.67
2023-03-27T06:50:24.364Z,3.42
2023-03-27T06:52:50.852Z,3.42
2023-03-27T06:55:19.921Z,3.66
2023-03-27T06:57:48.327Z,3.87
2023-03-27T07:00:17.541Z,3.98
2023-03-27T07:02:45.541Z,3.97
2023-03-27T07:05:12.896Z,3.75
2023-03-27T07:07:41.438Z,4.09
2023-03-27T07:10:09.840Z,4.12
2023-03-27T07:12:36.494Z,4.36
2023-03-27T07:15:06.152Z,4.35
2023-03-27T07:17:45.863Z,4.39
2023-03-27T07:20:15.005Z,4.45
2023-03-27T07:22:43.228Z,4.73
2023-03-27T07:25:12.451Z,5.06
2023-03-27T07:27:39.288Z,5.08
2023-03-27T07:30:08.210Z,5.04
2023-03-27T07:32:37.915Z,4.91
2023-03-27T07:35:05.432Z,4.86
2023-03-27T07:37:32.014Z,4.83
2023-03-27T07:39:58.517Z,4.96
2023-03-27T07:42:25.065Z,5.13
2023-03-27T07:44:51.924Z,5.13
2023-03-27T07:47:18.397Z,5.43
2023-03-27T07:49:44.841Z,5.55
2023-03-27T07:52:14.721Z,5.51
2023-03-27T07:54:43.149Z,5.96
2023-03-27T07:57:10.365Z,6.26
2023-03-27T07:59:36.909Z,6.99
2023-03-27T08:02:03.483Z,7.43
2023-03-27T08:04:30.074Z,8.01
2023-03-27T08:06:56.636Z,8.30
2023-03-27T08:09:23.168Z,8.38
2023-03-27T08:11:50.635Z,9.14
2023-03-27T08:14:17.290Z,9.13
2023-03-27T08:16:43.774Z,9.14
2023-03-27T08:19:12.031Z,9.65
2023-03-27T08:21:38.767Z,10.15
2023-03-27T08:24:05.924Z,10.28
2023-03-27T08:26:33.067Z,10.34
2023-03-27T08:29:00.181Z,9.97
2023-03-27T08:31:30.489Z,10.81
2023-03-27T08:33:57.277Z,10.53
2023-03-27T08:36:27.216Z,11.53
2023-03-27T08:38:55.345Z,11.52
2023-03-27T08:41:40.042Z,11.75
2023-03-27T08:44:13.107Z,11.30
2023-03-27T08:46:46.793Z,11.99
2023-03-27T08:49:18.581Z,11.91
2023-03-27T08:51:53.112Z,10.75
2023-03-27T08:54:24.047Z,10.46
2023-03-27T08:56:50.998Z,9.63
2023-03-27T08:59:21.586Z,10.80
2023-03-27T09:01:53.885Z,12.16
2023-03-27T09:04:20.259Z,12.82
2023-03-27T09:07:02.955Z,12.76
2023-03-27T09:09:33.152Z,11.61
2023-03-27T09:12:12.138Z,12.28
2023-03-27T09:14:52.910Z,12.73
2023-03-27T09:17:43.830Z,12.62
2023-03-27T09:20:20.687Z,11.99
2023-03-27T09:22:54.622Z,11.73
2023-03-27T09:25:38.085Z,12.17
2023-03-27T09:28:17.445Z,12.88
2023-03-27T09:30:44.002Z,13.80
2023-03-27T09:33:11.889Z,14.28
2023-03-27T09:35:39.183Z,13.38
2023-03-27T09:38:33.169Z,12.15
2023-03-27T09:41:28.777Z,12.39
2023-03-27T09:44:09.055Z,13.34
2023-03-27T09:46:40.570Z,14.08
2023-03-27T09:49:13.828Z,14.88
2023-03-27T09:51:42.774Z,14.80
2023-03-27T09:54:12.783Z,13.50
2023-03-27T09:56:45.021Z,11.31
2023-03-27T09:59:20.135Z,9.60
2023-03-27T10:01:49.004Z,10.80
2023-03-27T10:04:18.966Z,9.78
2023-03-27T10:07:05.468Z,8.76
2023-03-27T10:09:35.408Z,8.43
2023-03-27T10:12:10.890Z,8.48
2023-03-27T10:14:47.451Z,8.35
2023-03-27T10:17:30.096Z,9.27
2023-03-27T10:20:04.357Z,10.55
2023-03-27T10:22:33.993Z,12.41
2023-03-27T10:25:15.815Z,13.36
2023-03-27T10:27:43.753Z,13.68
2023-03-27T10:30:30.446Z,13.84
2023-03-27T10:32:57.004Z,14.41
2023-03-27T10:35:27.315Z,14.90
2023-03-27T10:37:55.143Z,15.18
2023-03-27T10:40:26.354Z,14.78
2023-03-27T10:43:00.022Z,14.88
2023-03-27T10:45:26.534Z,15.11
2023-03-27T10:47:57.838Z,15.16
2023-03-27T10:50:33.622Z,15.54
2023-03-27T10:53:12.483Z,15.52
2023-03-27T10:55:51.680Z,15.95
2023-03-27T10:58:33.823Z,15.80
2023-03-27T11:01:25.118Z,15.51
2023-03-27T11:03:59.623Z,14.23
2023-03-27T11:06:32.086Z,12.90
2023-03-27T11:09:11.338Z,14.25
2023-03-27T11:11:48.076Z,12.71
2023-03-27T11:14:25.709Z,11.87
2023-03-27T11:17:06.525Z,10.45
2023-03-27T11:19:40.537Z,10.23
2023-03-27T11:22:30.694Z,9.40
2023-03-27T11:25:05.879Z,8.93
2023-03-27T11:28:05.703Z,8.92
2023-03-27T11:30:40.320Z,11.17
2023-03-27T11:33:10.364Z,12.74
2023-03-27T11:35:42.942Z,13.43
2023-03-27T11:38:19.000Z,12.45
2023-03-27T11:40:48.343Z,11.27
2023-03-27T11:43:16.878Z,11.96
2023-03-27T11:45:53.111Z,12.43
2023-03-27T11:49:05.480Z,14.46
2023-03-27T11:51:44.017Z,14.07
2023-03-27T11:54:22.112Z,15.40
2023-03-27T11:56:56.396Z,14.72
2023-03-27T11:59:48.498Z,11.45
2023-03-27T12:02:33.362Z,11.31
2023-03-27T12:05:03.924Z,11.70
2023-03-27T12:07:48.963Z,12.66
2023-03-27T12:10:29.878Z,12.35
2023-03-27T12:13:11.616Z,10.91
2023-03-27T12:16:08.919Z,10.73
2023-03-27T12:19:29.695Z,10.95
2023-03-27T12:22:34.416Z,13.16
2023-03-27T12:25:34.166Z,14.14
2023-03-27T12:28:23.167Z,14.44
2023-03-27T12:30:56.422Z,14.71
2023-03-27T12:33:47.758Z,14.18
2023-03-27T12:36:21.120Z,14.42
2023-03-27T12:38:47.930Z,14.88
2023-03-27T12:41:26.050Z,15.55
2023-03-27T12:43:58.649Z,14.95
2023-03-27T12:46:25.227Z,15.43
2023-03-27T12:48:54.523Z,13.85
2023-03-27T12:51:37.864Z,12.67
2023-03-27T12:54:20.062Z,12.50
2023-03-27T12:57:10.883Z,12.81
2023-03-27T12:59:49.973Z,12.29
2023-03-27T13:02:45.811Z,12.09
2023-03-27T13:05:26.927Z,11.37
2023-03-27T13:08:00.135Z,11.41
2023-03-27T13:10:35.991Z,10.93
2023-03-27T13:13:02.648Z,9.78
2023-03-27T13:15:38.233Z,9.82
2023-03-27T13:18:22.661Z,10.35
2023-03-27T13:21:02.154Z,12.24
2023-03-27T13:23:52.327Z,12.84
2023-03-27T13:26:24.664Z,12.96
2023-03-27T13:28:54.126Z,13.45
2023-03-27T13:31:46.587Z,13.31
2023-03-27T13:34:27.994Z,13.60
2023-03-27T13:37:06.236Z,13.02
2023-03-27T13:39:59.484Z,13.30
2023-03-27T13:42:39.902Z,13.84
2023-03-27T13:45:20.738Z,13.75
2023-03-27T13:48:04.826Z,12.50
2023-03-27T13:50:46.462Z,13.10
2023-03-27T13:53:37.722Z,13.46
2023-03-27T13:56:16.917Z,13.12
2023-03-27T13:59:17.648Z,12.06
2023-03-27T14:02:44.779Z,11.56
2023-03-27T14:05:47.953Z,11.38
2023-03-27T14:08:41.550Z,11.34
2023-03-27T14:11:16.027Z,10.94
2023-03-27T14:13:51.796Z,10.24
2023-03-27T14:16:48.173Z,9.73
2023-03-27T14:19:23.779Z,9.47
2023-03-27T14:22:03.597Z,9.71
2023-03-27T14:24:38.372Z,9.36
2023-03-27T14:27:10.875Z,9.42
2023-03-27T14:29:37.369Z,9.41
2023-03-27T14:32:12.379Z,9.32
2023-03-27T14:37:38.321Z,9.01
2023-03-27T14:40:23.286Z,8.88
2023-03-27T14:42:50.376Z,8.79
2023-03-27T14:45:27.640Z,8.81
2023-03-27T14:48:21.763Z,9.01
2023-03-27T14:50:53.200Z,8.73
2023-03-27T14:53:26.440Z,9.06
2023-03-27T14:55:55.448Z,8.94
2023-03-27T14:58:24.645Z,8.66
2023-03-27T15:00:58.304Z,8.87
2023-03-27T15:03:27.436Z,8.95
2023-03-27T15:06:07.646Z,8.93
2023-03-27T15:08:38.801Z,9.37
2023-03-27T15:11:17.224Z,9.36
2023-03-27T15:13:45.755Z,9.12
2023-03-27T15:16:24.574Z,8.66
2023-03-27T15:18:58.562Z,9.03
2023-03-27T15:21:46.514Z,9.44
2023-03-27T15:24:20.213Z,9.45
2023-03-27T15:26:50.639Z,9.64
2023-03-27T15:29:19.817Z,9.50
2023-03-27T15:31:49.124Z,9.48
2023-03-27T15:34:47.101Z,9.29
2023-03-27T15:37:24.419Z,9.21
2023-03-27T15:40:11.252Z,8.93
2023-03-27T15:42:51.080Z,8.89
2023-03-27T15:45:24.339Z,9.08
2023-03-27T15:48:06.490Z,9.02
2023-03-27T15:50:33.937Z,9.00
2023-03-27T15:53:02.437Z,9.11
2023-03-27T15:55:39.684Z,9.12
2023-03-27T15:58:23.289Z,9.21
2023-03-27T16:00:54.343Z,8.76
2023-03-27T16:03:23.584Z,8.44
2023-03-27T16:05:52.729Z,8.58
2023-03-27T16:08:38.197Z,8.22
2023-03-27T16:11:06.381Z,7.98
2023-03-27T16:13:51.401Z,8.53
2023-03-27T16:16:24.900Z,8.62
2023-03-27T16:18:52.051Z,8.35
2023-03-27T16:21:23.385Z,8.60
2023-03-27T16:23:49.861Z,8.81
2023-03-27T16:26:21.257Z,8.76
2023-03-27T16:28:47.902Z,8.74
2023-03-27T16:31:17.464Z,8.60
2023-03-27T16:33:46.421Z,8.58
2023-03-27T16:36:15.357Z,8.79
2023-03-27T16:38:43.764Z,8.69
2023-03-27T16:41:15.294Z,8.61
2023-03-27T16:43:42.573Z,8.61
2023-03-27T16:46:23.990Z,8.49
2023-03-27T16:48:51.806Z,8.33
2023-03-27T16:51:23.137Z,8.60
2023-03-27T16:53:49.686Z,8.48
2023-03-27T16:56:16.430Z,8.20
2023-03-27T16:58:43.011Z,8.23
2023-03-27T17:01:10.019Z,8.20
2023-03-27T17:03:39.456Z,8.38
2023-03-27T17:06:09.040Z,8.26
2023-03-27T17:08:36.625Z,8.13
2023-03-27T17:11:12.179Z,7.99
2023-03-27T17:13:42.906Z,8.01
2023-03-27T17:16:10.184Z,7.87
2023-03-27T17:18:36.958Z,7.85
2023-03-27T17:21:04.231Z,7.91
2023-03-27T17:23:31.610Z,7.70
2023-03-27T17:26:02.969Z,7.49
2023-03-27T17:28:31.077Z,7.30
2023-03-27T17:31:04.673Z,7.54
2023-03-27T17:33:32.939Z,7.37
2023-03-27T17:35:59.559Z,7.41
2023-03-27T17:38:26.481Z,7.43
2023-03-27T17:40:52.953Z,7.21
2023-03-27T17:43:19.535Z,7.39
2023-03-27T17:45:46.192Z,7.26
2023-03-27T17:48:12.753Z,7.25
2023-03-27T17:50:39.695Z,6.93
2023-03-27T17:53:06.837Z,6.93
2023-03-27T17:55:36.697Z,6.68
2023-03-27T17:58:09.323Z,6.74
2023-03-27T18:00:38.483Z,6.54
2023-03-27T18:03:06.579Z,6.51
2023-03-27T18:05:42.329Z,6.50
2023-03-27T18:08:11.224Z,6.45
2023-03-27T18:10:44.005Z,6.52
2023-03-27T18:13:11.278Z,6.39
2023-03-27T18:15:39.724Z,6.22
2023-03-27T18:18:06.238Z,6.20
2023-03-27T18:20:33.007Z,6.34
2023-03-27T18:22:59.448Z,6.00
2023-03-27T18:25:26.117Z,5.97
2023-03-27T18:27:52.750Z,6.18
2023-03-27T18:30:20.410Z,6.08
2023-03-27T18:32:47.212Z,5.96
2023-03-27T18:35:16.738Z,5.99
2023-03-27T18:37:44.647Z,5.91
2023-03-27T18:40:13.563Z,5.98
2023-03-27T18:42:40.856Z,5.93
2023-03-27T18:45:08.517Z,5.83
2023-03-27T18:47:36.487Z,5.85
2023-03-27T18:50:05.756Z,5.85
2023-03-27T18:52:32.582Z,5.78
2023-03-27T18:54:59.117Z,5.66
2023-03-27T18:57:25.686Z,5.53
2023-03-27T18:59:52.290Z,5.75
2023-03-27T19:02:18.876Z,5.55
2023-03-27T19:04:45.663Z,5.53
2023-03-27T19:07:15.431Z,5.50
2023-03-27T19:09:42.183Z,5.57
2023-03-27T19:12:09.289Z,5.63
2023-03-27T19:14:36.642Z,5.51
2023-03-27T19:17:05.815Z,5.39
2023-03-27T19:19:33.549Z,5.18
2023-03-27T19:22:00.096Z,5.35
2023-03-27T19:24:26.568Z,5.40
2023-03-27T19:26:53.111Z,5.39
2023-03-27T19:29:20.235Z,5.44
2023-03-27T19:31:46.841Z,5.41
2023-03-27T19:34:13.402Z,5.33
2023-03-27T19:36:39.859Z,5.41
2023-03-27T19:39:07.402Z,5.36
2023-03-27T19:41:33.884Z,5.03
2023-03-27T19:44:00.830Z,5.29
2023-03-27T19:46:28.572Z,5.14
2023-03-27T19:48:55.839Z,5.23
2023-03-27T19:51:22.829Z,5.12
2023-03-27T19:53:49.286Z,5.12
2023-03-27T19:56:16.136Z,4.96
2023-03-27T19:58:42.778Z,4.94
2023-03-27T20:01:09.634Z,5.10
2023-03-27T20:03:38.315Z,5.13
2023-03-27T20:06:13.465Z,4.98
2023-03-27T20:08:41.074Z,5.00
2023-03-27T20:11:07.981Z,5.11
2023-03-27T20:13:42.434Z,4.93
2023-03-27T20:16:14.955Z,5.03
2023-03-27T20:18:41.844Z,4.88
2023-03-27T20:21:09.608Z,4.80
2023-03-27T20:23:38.442Z,5.03
2023-03-27T20:26:05.022Z,4.92
2023-03-27T20:28:31.500Z,4.83
2023-03-27T20:31:06.251Z,4.77
2023-03-27T20:33:32.905Z,4.87
2023-03-27T20:36:00.148Z,4.78
2023-03-27T20:38:31.470Z,4.75
2023-03-27T20:41:03.737Z,4.76
2023-03-27T20:43:34.804Z,4.51
2023-03-27T20:46:03.286Z,4.56
2023-03-27T20:48:40.409Z,4.59
2023-03-27T20:51:14.798Z,4.45
2023-03-27T20:53:54.456Z,4.41
2023-03-27T20:56:21.950Z,4.38
2023-03-27T20:58:48.557Z,4.50
2023-03-27T21:01:19.250Z,4.45
2023-03-27T21:03:49.448Z,4.51
2023-03-27T21:06:19.373Z,4.37
2023-03-27T21:08:47.082Z,4.24
2023-03-27T21:11:14.057Z,4.32
2023-03-27T21:13:43.027Z,4.19
2023-03-27T21:16:09.488Z,4.22
2023-03-27T21:18:35.920Z,4.24
2023-03-27T21:21:02.582Z,4.30
2023-03-27T21:23:29.660Z,4.26
2023-03-27T21:25:57.564Z,4.22
2023-03-27T21:28:24.188Z,4.22
2023-03-27T21:30:50.674Z,4.07
2023-03-27T21:33:17.442Z,4.04
2023-03-27T21:35:46.989Z,4.05
2023-03-27T21:38:15.565Z,4.04
2023-03-27T21:40:42.889Z,3.98
2023-03-27T21:43:09.597Z,4.07
2023-03-27T21:45:36.562Z,3.99
2023-03-27T21:48:03.302Z,3.89
2023-03-27T21:50:29.877Z,3.86
2023-03-27T21:52:56.377Z,3.67
2023-03-27T21:55:22.938Z,3.81
2023-03-27T21:57:49.642Z,3.78
2023-03-27T22:00:16.448Z,3.81
2023-03-27T22:02:42.984Z,3.68
2023-03-27T22:05:11.509Z,3.39
2023-03-27T22:07:38.003Z,3.50
2023-03-27T22:10:06.363Z,3.62
2023-03-27T22:12:37.202Z,3.44
2023-03-27T22:15:05.979Z,3.39
2023-03-27T22:17:34.565Z,3.38
2023-03-27T22:20:01.170Z,3.44
2023-03-27T22:22:27.733Z,3.55
2023-03-27T22:24:54.239Z,3.46
2023-03-27T22:27:20.997Z,3.45
2023-03-27T22:29:47.573Z,3.36
2023-03-27T22:32:14.082Z,3.46
2023-03-27T22:34:41.463Z,3.36
2023-03-27T22:37:07.918Z,3.32
2023-03-27T22:39:34.363Z,3.24
2023-03-27T22:42:00.844Z,3.40
2023-03-27T22:44:29.742Z,3.44
2023-03-27T22:46:57.483Z,3.32
2023-03-27T22:49:23.942Z,3.41
2023-03-27T22:51:50.386Z,3.44
2023-03-27T22:54:20.352Z,3.43
2023-03-27T22:56:47.401Z,3.47
2023-03-27T22:59:14.863Z,3.21
2023-03-27T23:01:41.353Z,3.18
2023-03-27T23:04:08.032Z,3.09
2023-03-27T23:06:34.794Z,3.11
2023-03-27T23:09:01.442Z,3.06
2023-03-27T23:11:27.932Z,2.99
2023-03-27T23:13:54.402Z,3.15
2023-03-27T23:16:22.567Z,3.09
2023-03-27T23:18:49.031Z,3.09
2023-03-27T23:21:18.308Z,2.99
2023-03-27T23:23:45.425Z,3.08
2023-03-27T23:26:12.752Z,3.01
2023-03-27T23:28:41.294Z,3.17
2023-03-27T23:31:12.510Z,3.16
2023-03-27T23:33:41.180Z,3.13
2023-03-27T23:36:12.452Z,3.13
2023-03-27T23:38:41.860Z,2.99
2023-03-27T23:41:10.883Z,2.85
2023-03-27T23:43:37.579Z,2.99
2023-03-27T23:46:08.644Z,2.96
2023-03-27T23:48:35.368Z,2.89
2023-03-27T23:51:02.444Z,3.03
2023-03-27T23:53:29.924Z,3.00
2023-03-27T23:55:58.147Z,2.93
2023-03-27T23:58:32.217Z,2.97
